Time;durP1;ratioP1;P1;durP2;ratioP2;P2;SDS_P1;SDS_P2;PMS_P1;PMS_P2;Temp;Humidity;BMP_temperature;BMP_pressure;BME280_temperature;BME280_humidity;BME280_pressure;Samples;Min_cycle;Max_cycle;Signal;HPM_P1;HPM_P2
2022/03/30 00:01:30;;;;;;;34.65;14.90;;;3.70;99.90;;;;;;5035163;28;20131;-86
2022/03/30 00:03:56;;;;;;;36.83;14.93;;;3.70;99.90;;;;;;5017662;28;20095;-85
2022/03/30 00:06:21;;;;;;;33.75;13.75;;;3.70;99.90;;;;;;5017264;28;20044;-86
2022/03/30 00:08:47;;;;;;;39.83;14.20;;;3.70;99.90;;;;;;5016957;28;20060;-85
2022/03/30 00:11:13;;;;;;;26.13;13.75;;;3.80;99.90;;;;;;5029931;28;20102;-86
2022/03/30 00:13:39;;;;;;;37.60;15.10;;;3.70;99.90;;;;;;5023801;28;20131;-85
2022/03/30 00:16:07;;;;;;;37.50;14.95;;;3.70;99.90;;;;;;5017835;28;20127;-86
2022/03/30 00:18:33;;;;;;;35.97;15.25;;;3.70;99.90;;;;;;5033745;28;20056;-86
2022/03/30 00:21:00;;;;;;;40.10;16.15;;;3.60;99.90;;;;;;5031598;28;20122;-85
2022/03/30 00:23:26;;;;;;;34.28;15.45;;;3.60;99.90;;;;;;5015558;28;20049;-84
2022/03/30 00:25:51;;;;;;;35.90;14.32;;;3.50;99.90;;;;;;5010715;28;20048;-86
2022/03/30 00:28:17;;;;;;;30.65;13.93;;;3.50;99.90;;;;;;5031311;28;20040;-85
2022/03/30 00:30:43;;;;;;;36.30;15.40;;;3.50;99.90;;;;;;5032964;28;20120;-86
2022/03/30 00:33:10;;;;;;;36.92;16.85;;;3.50;99.90;;;;;;5015191;28;20063;-86
2022/03/30 00:35:35;;;;;;;40.45;15.55;;;3.50;99.90;;;;;;5024993;28;20734;-85
2022/03/30 00:38:01;;;;;;;39.50;15.73;;;3.50;99.90;;;;;;5000649;28;20051;-86
2022/03/30 00:40:27;;;;;;;36.17;15.05;;;3.50;99.90;;;;;;5033125;28;20044;-86
2022/03/30 00:42:53;;;;;;;38.35;15.82;;;3.50;99.90;;;;;;5014855;28;20358;-87
2022/03/30 00:45:21;;;;;;;37.47;15.90;;;3.60;99.90;;;;;;5031565;28;20102;-87
2022/03/30 00:47:47;;;;;;;46.05;17.27;;;3.50;99.90;;;;;;5016249;28;20092;-87
2022/03/30 00:50:18;;;;;;;35.17;16.55;;;3.50;99.90;;;;;;5016121;28;20329;-86
2022/03/30 00:52:46;;;;;;;35.25;15.73;;;3.50;99.90;;;;;;5030038;28;20525;-87
2022/03/30 00:55:13;;;;;;;44.42;15.98;;;3.50;99.90;;;;;;5030895;28;20464;-86
2022/03/30 00:57:41;;;;;;;43.20;17.30;;;3.50;99.90;;;;;;5016058;28;20131;-85
2022/03/30 01:00:09;;;;;;;38.13;17.25;;;3.60;99.90;;;;;;5014820;28;20048;-86
2022/03/30 01:02:40;;;;;;;41.08;16.10;;;3.60;99.90;;;;;;5032886;28;20448;-86
2022/03/30 01:05:07;;;;;;;41.85;16.15;;;3.80;99.90;;;;;;5032819;28;20410;-85
2022/03/30 01:07:32;;;;;;;39.95;16.33;;;3.80;99.90;;;;;;5033478;28;20056;-85
2022/03/30 01:09:58;;;;;;;38.28;17.48;;;3.80;99.90;;;;;;5033415;28;20040;-85
2022/03/30 01:12:25;;;;;;;41.90;17.27;;;3.90;99.90;;;;;;5032845;28;20506;-87
2022/03/30 01:14:52;;;;;;;40.47;16.70;;;3.90;99.90;;;;;;5030164;28;20113;-86
2022/03/30 01:17:19;;;;;;;40.67;17.63;;;4.00;99.90;;;;;;4999572;28;20063;-86
2022/03/30 01:19:44;;;;;;;47.53;17.40;;;4.00;99.90;;;;;;5015193;28;20116;-86
2022/03/30 01:22:10;;;;;;;41.60;17.55;;;4.10;99.90;;;;;;5016994;28;20156;-85
2022/03/30 01:24:37;;;;;;;41.80;17.73;;;4.10;99.90;;;;;;5016980;28;20040;-85
2022/03/30 01:27:03;;;;;;;38.47;16.33;;;4.20;99.90;;;;;;5002746;28;20075;-85
2022/03/30 01:32:26;;;;;;;40.17;17.52;;;4.20;99.90;;;;;;5019402;28;20053;-86
2022/03/30 01:34:53;;;;;;;41.70;17.80;;;4.20;99.90;;;;;;5019605;28;20114;-85
2022/03/30 01:37:20;;;;;;;41.53;17.35;;;4.30;99.90;;;;;;5032591;28;20451;-85
2022/03/30 01:39:45;;;;;;;49.05;18.42;;;4.30;99.90;;;;;;5016969;28;20057;-86
2022/03/30 01:42:11;;;;;;;39.00;16.60;;;4.40;99.90;;;;;;5012315;28;20052;-85
2022/03/30 01:44:37;;;;;;;39.70;17.10;;;4.30;99.90;;;;;;4999269;28;20112;-86
2022/03/30 01:47:04;;;;;;;38.00;17.33;;;4.40;99.90;;;;;;5032987;28;20052;-85
2022/03/30 01:49:29;;;;;;;34.22;16.02;;;4.40;99.90;;;;;;5008584;28;20047;-85
2022/03/30 01:51:58;;;;;;;47.65;16.73;;;4.40;99.90;;;;;;5023840;28;20038;-85
2022/03/30 01:54:25;;;;;;;39.33;16.30;;;4.40;99.90;;;;;;5032090;28;20536;-85
2022/03/30 01:56:52;;;;;;;41.75;16.10;;;4.40;99.90;;;;;;5016160;28;20466;-85
2022/03/30 01:59:19;;;;;;;35.67;16.58;;;4.60;99.90;;;;;;5032600;28;20127;-84
2022/03/30 02:01:46;;;;;;;44.40;17.38;;;4.50;99.90;;;;;;5032660;28;20102;-86
2022/03/30 02:04:13;;;;;;;39.03;16.80;;;4.50;99.90;;;;;;5031621;28;20041;-87
2022/03/30 02:06:40;;;;;;;41.45;16.83;;;4.50;99.90;;;;;;5032520;28;20095;-86
2022/03/30 02:09:06;;;;;;;35.28;15.98;;;4.60;99.90;;;;;;5031458;28;20057;-86
2022/03/30 02:11:33;;;;;;;36.50;17.25;;;4.60;99.90;;;;;;5016370;28;20044;-85
2022/03/30 02:14:00;;;;;;;39.22;16.30;;;4.70;99.90;;;;;;5030962;28;20043;-86
2022/03/30 02:16:26;;;;;;;38.20;16.17;;;4.70;99.90;;;;;;5032022;28;20124;-86
2022/03/30 02:18:52;;;;;;;33.20;15.52;;;4.70;99.90;;;;;;5032362;28;20117;-85
2022/03/30 02:21:18;;;;;;;36.90;15.80;;;4.70;99.90;;;;;;5031502;28;20137;-85
2022/03/30 02:23:47;;;;;;;34.88;17.05;;;4.70;99.90;;;;;;5012521;28;20103;-85
2022/03/30 02:26:14;;;;;;;38.25;16.63;;;4.80;99.90;;;;;;5023184;28;20045;-86
2022/03/30 02:28:51;;;;;;;37.63;16.83;;;4.90;99.90;;;;;;5032657;28;20048;-85
2022/03/30 02:31:18;;;;;;;38.33;15.50;;;4.80;99.90;;;;;;5031512;28;20111;-86
2022/03/30 02:33:44;;;;;;;38.95;17.52;;;4.80;99.90;;;;;;5032960;28;20059;-87
2022/03/30 02:36:11;;;;;;;32.42;16.40;;;4.90;99.90;;;;;;5016131;28;20052;-85
2022/03/30 02:38:36;;;;;;;38.03;18.00;;;4.80;99.90;;;;;;5031385;28;20040;-85
2022/03/30 02:41:03;;;;;;;40.50;16.17;;;4.90;99.90;;;;;;5035277;28;20383;-85
2022/03/30 02:43:29;;;;;;;39.45;17.30;;;4.80;99.90;;;;;;5034707;28;20041;-85
2022/03/30 02:45:54;;;;;;;40.03;17.63;;;4.80;99.90;;;;;;5025549;28;20140;-85
2022/03/30 02:48:28;;;;;;;41.05;15.95;;;4.80;99.90;;;;;;5029631;28;20525;-87
2022/03/30 02:50:58;;;;;;;36.28;16.55;;;4.70;99.90;;;;;;5020033;28;20041;-86
2022/03/30 02:53:25;;;;;;;45.92;18.55;;;4.60;99.90;;;;;;5035200;28;20044;-85
2022/03/30 02:55:51;;;;;;;34.38;16.65;;;4.60;99.90;;;;;;5035771;28;20060;-86
2022/03/30 02:58:19;;;;;;;41.22;17.40;;;4.50;99.90;;;;;;5050060;28;20044;-85
2022/03/30 03:00:45;;;;;;;38.83;16.98;;;4.50;99.90;;;;;;5019632;28;20114;-85
2022/03/30 03:03:11;;;;;;;46.72;17.80;;;4.50;99.90;;;;;;5018791;28;20114;-85
2022/03/30 03:05:41;;;;;;;43.08;17.05;;;4.60;99.90;;;;;;5035096;28;20045;-85
2022/03/30 03:08:08;;;;;;;46.22;17.55;;;4.50;99.90;;;;;;5035361;28;20128;-86
2022/03/30 03:10:36;;;;;;;43.05;17.70;;;4.50;99.90;;;;;;5035173;28;20117;-85
2022/03/30 03:13:06;;;;;;;39.67;16.90;;;4.50;99.90;;;;;;5035507;28;20106;-86
2022/03/30 03:15:33;;;;;;;37.42;17.08;;;4.60;99.90;;;;;;5018895;28;20482;-85
2022/03/30 03:18:01;;;;;;;37.58;16.42;;;4.60;99.90;;;;;;5018268;28;20124;-85
2022/03/30 03:20:27;;;;;;;42.58;17.20;;;4.60;99.90;;;;;;5017172;28;20096;-86
2022/03/30 03:22:55;;;;;;;41.40;16.27;;;4.60;99.90;;;;;;5010081;28;20488;-85
2022/03/30 03:25:21;;;;;;;34.97;16.77;;;4.60;99.90;;;;;;5002390;28;20041;-86
2022/03/30 03:27:47;;;;;;;41.00;17.90;;;4.70;99.90;;;;;;5035764;28;20051;-85
2022/03/30 03:30:14;;;;;;;44.47;17.73;;;4.70;99.90;;;;;;5001672;28;20044;-85
2022/03/30 03:32:41;;;;;;;38.55;16.42;;;4.70;99.90;;;;;;5017337;28;20053;-85
2022/03/30 03:35:09;;;;;;;35.00;15.63;;;4.70;99.90;;;;;;5017685;28;20146;-85
2022/03/30 03:37:39;;;;;;;33.42;15.10;;;4.80;99.90;;;;;;5017472;28;20052;-85
2022/03/30 03:40:05;;;;;;;42.67;16.50;;;4.80;99.90;;;;;;5018003;28;20057;-86
2022/03/30 03:42:32;;;;;;;43.17;16.27;;;4.80;99.90;;;;;;5017332;28;20037;-87
2022/03/30 03:44:58;;;;;;;39.47;16.58;;;4.90;99.90;;;;;;4985101;28;20134;-86
2022/03/30 03:47:24;;;;;;;42.45;17.15;;;4.90;99.90;;;;;;5032829;28;20069;-85
2022/03/30 03:49:50;;;;;;;50.55;17.63;;;4.90;99.90;;;;;;5001900;28;20107;-86
2022/03/30 03:52:16;;;;;;;36.78;18.05;;;4.90;99.90;;;;;;5017677;28;20569;-86
2022/03/30 03:54:42;;;;;;;36.65;16.73;;;4.90;99.90;;;;;;5034007;28;20045;-87
2022/03/30 03:57:08;;;;;;;38.70;16.13;;;5.00;99.90;;;;;;5017547;28;20084;-86
2022/03/30 03:59:35;;;;;;;37.55;17.10;;;5.00;99.90;;;;;;5016348;28;20037;-87
2022/03/30 04:02:02;;;;;;;31.80;15.38;;;5.00;99.90;;;;;;5016055;28;20572;-87
2022/03/30 04:04:28;;;;;;;44.00;17.60;;;5.00;99.90;;;;;;5016448;28;20087;-86
2022/03/30 04:06:53;;;;;;;38.97;15.80;;;5.10;99.90;;;;;;5017570;28;20049;-84
2022/03/30 04:09:19;;;;;;;39.78;16.67;;;5.20;99.90;;;;;;5049514;28;20059;-88
2022/03/30 04:11:45;;;;;;;35.40;16.70;;;5.10;99.90;;;;;;5016593;28;20083;-85
2022/03/30 04:14:15;;;;;;;33.33;16.20;;;5.20;99.90;;;;;;5033798;28;20044;-86
2022/03/30 04:16:42;;;;;;;40.60;16.73;;;5.20;99.90;;;;;;5017215;28;20063;-87
2022/03/30 04:19:08;;;;;;;41.58;16.52;;;5.20;99.90;;;;;;5033378;28;20049;-85
2022/03/30 04:21:34;;;;;;;36.90;15.70;;;5.20;99.90;;;;;;5016384;28;20043;-86
2022/03/30 04:23:59;;;;;;;31.65;15.10;;;5.20;99.90;;;;;;5017334;28;20057;-86
2022/03/30 04:26:25;;;;;;;38.58;16.40;;;5.20;99.90;;;;;;5000087;28;20052;-86
2022/03/30 04:28:51;;;;;;;39.38;15.30;;;5.20;99.90;;;;;;5033896;28;20087;-86
2022/03/30 04:31:16;;;;;;;31.23;14.23;;;5.20;99.90;;;;;;5033699;28;20053;-86
2022/03/30 04:33:42;;;;;;;28.15;13.25;;;5.30;99.90;;;;;;5029375;28;20048;-86
2022/03/30 04:36:08;;;;;;;33.70;13.68;;;5.30;99.90;;;;;;5016304;28;20101;-86
2022/03/30 04:38:34;;;;;;;24.48;12.43;;;5.30;99.90;;;;;;5032524;28;20067;-85
2022/03/30 04:41:00;;;;;;;28.38;13.48;;;5.30;99.90;;;;;;4998006;28;20076;-85
2022/03/30 04:43:27;;;;;;;27.65;11.70;;;5.30;99.90;;;;;;5016943;28;20053;-87
2022/03/30 04:45:54;;;;;;;27.27;11.55;;;5.30;99.90;;;;;;5008671;28;20045;-86
2022/03/30 04:48:20;;;;;;;28.33;11.98;;;5.30;99.90;;;;;;5001284;28;20048;-86
2022/03/30 04:50:46;;;;;;;26.25;9.85;;;5.30;99.90;;;;;;5011939;28;20113;-85
2022/03/30 04:53:12;;;;;;;13.07;7.18;;;5.30;99.90;;;;;;5014042;28;20045;-87
2022/03/30 04:55:38;;;;;;;13.10;6.10;;;5.30;99.90;;;;;;5013171;28;20044;-85
2022/03/30 04:58:04;;;;;;;13.88;5.80;;;5.40;99.90;;;;;;5001173;28;20053;-85
2022/03/30 05:00:31;;;;;;;9.80;5.00;;;5.40;99.90;;;;;;5014964;28;20065;-85
2022/03/30 05:02:57;;;;;;;5.75;3.05;;;5.40;99.90;;;;;;5031650;28;20414;-87
2022/03/30 05:05:23;;;;;;;4.35;2.60;;;5.40;99.90;;;;;;5012232;28;20048;-86
2022/03/30 05:07:49;;;;;;;3.55;2.00;;;5.40;99.90;;;;;;5032898;28;20051;-85
2022/03/30 05:10:15;;;;;;;3.45;1.23;;;5.40;99.90;;;;;;5000351;28;20049;-85
2022/03/30 05:12:41;;;;;;;1.85;1.13;;;5.50;99.90;;;;;;4998843;28;20128;-86
2022/03/30 05:15:09;;;;;;;3.22;1.50;;;5.50;99.90;;;;;;5031756;28;20064;-86
2022/03/30 05:17:39;;;;;;;1.95;0.98;;;5.50;99.90;;;;;;5030324;28;20138;-84
2022/03/30 05:20:06;;;;;;;3.00;1.00;;;5.50;99.90;;;;;;5032352;28;20048;-83
2022/03/30 05:22:33;;;;;;;3.35;1.75;;;5.50;99.90;;;;;;5015680;28;20044;-82
2022/03/30 05:25:00;;;;;;;1.20;1.10;;;5.50;99.90;;;;;;5014790;28;20049;-83
2022/03/30 05:27:26;;;;;;;1.60;1.10;;;5.50;99.90;;;;;;5014702;28;20041;-85
2022/03/30 05:29:51;;;;;;;3.42;1.30;;;5.40;99.90;;;;;;5016370;28;20048;-83
2022/03/30 05:32:17;;;;;;;1.77;1.13;;;5.40;99.90;;;;;;4999385;28;20264;-83
2022/03/30 05:34:43;;;;;;;3.40;1.38;;;5.40;99.90;;;;;;5016005;28;20056;-86
2022/03/30 05:37:09;;;;;;;3.88;1.50;;;5.20;99.90;;;;;;5014001;28;20121;-86
2022/03/30 05:39:41;;;;;;;3.53;1.70;;;5.10;99.90;;;;;;5023888;28;20037;-87
2022/03/30 05:42:12;;;;;;;3.55;1.40;;;5.00;99.90;;;;;;5021908;28;20081;-84
2022/03/30 05:44:38;;;;;;;3.13;1.40;;;4.90;99.90;;;;;;5018646;28;20409;-84
2022/03/30 05:47:04;;;;;;;3.67;1.35;;;4.80;99.90;;;;;;5031242;28;20059;-86
2022/03/30 05:49:30;;;;;;;1.55;1.20;;;4.70;99.90;;;;;;5013658;28;20077;-86
2022/03/30 05:51:56;;;;;;;2.42;1.70;;;4.60;99.90;;;;;;5030854;28;20080;-83
2022/03/30 05:54:21;;;;;;;2.25;1.30;;;4.60;99.90;;;;;;5015063;28;20045;-89
2022/03/30 05:57:02;;;;;;;4.05;1.63;;;4.50;99.90;;;;;;5000452;28;20055;-86
2022/03/30 05:59:29;;;;;;;4.43;1.45;;;4.60;99.90;;;;;;4997336;28;20045;-87
2022/03/30 06:01:55;;;;;;;2.45;1.70;;;4.50;99.90;;;;;;5032622;28;20045;-86
2022/03/30 06:04:21;;;;;;;4.68;1.70;;;4.40;99.90;;;;;;5015846;28;20052;-85
2022/03/30 06:06:50;;;;;;;5.28;2.00;;;4.40;99.90;;;;;;5015825;28;20172;-86
2022/03/30 06:09:17;;;;;;;3.08;2.08;;;4.40;99.90;;;;;;4988021;28;20055;-86
2022/03/30 06:11:43;;;;;;;4.13;2.50;;;4.40;99.90;;;;;;5019824;28;20469;-86
2022/03/30 06:14:08;;;;;;;4.63;2.20;;;4.50;99.90;;;;;;5019885;28;20055;-86
2022/03/30 06:16:35;;;;;;;3.42;2.20;;;4.50;99.90;;;;;;5019308;28;20045;-87
2022/03/30 06:19:02;;;;;;;3.65;2.10;;;4.40;99.90;;;;;;5036026;28;20529;-86
2022/03/30 06:21:31;;;;;;;4.35;2.22;;;4.50;99.90;;;;;;5052172;28;20059;-88
2022/03/30 06:23:58;;;;;;;2.65;2.00;;;4.60;99.90;;;;;;5035976;28;20053;-86
2022/03/30 06:26:25;;;;;;;3.92;1.98;;;4.60;99.90;;;;;;5001841;28;20056;-86
2022/03/30 06:28:51;;;;;;;2.63;1.90;;;4.80;99.90;;;;;;5018334;28;20398;-87
2022/03/30 06:31:20;;;;;;;3.45;1.35;;;4.90;99.90;;;;;;5031709;28;20052;-87
2022/03/30 06:33:47;;;;;;;2.38;1.52;;;4.90;99.90;;;;;;5014265;28;20057;-87
2022/03/30 06:36:13;;;;;;;1.75;1.52;;;4.90;99.90;;;;;;5008907;28;20566;-86
2022/03/30 06:38:41;;;;;;;3.40;1.63;;;5.10;99.90;;;;;;5022258;28;20041;-86
2022/03/30 06:41:08;;;;;;;1.58;1.30;;;5.30;99.90;;;;;;5043688;28;20380;-87
2022/03/30 06:43:36;;;;;;;3.90;1.60;;;5.30;99.90;;;;;;4998094;28;20077;-86
2022/03/30 06:46:02;;;;;;;1.95;1.35;;;5.40;99.90;;;;;;4996552;28;20049;-86
2022/03/30 06:48:28;;;;;;;1.92;1.40;;;5.50;99.90;;;;;;5015758;28;20103;-86
2022/03/30 06:50:54;;;;;;;1.88;1.40;;;5.60;99.90;;;;;;4997357;28;20052;-86
2022/03/30 06:53:19;;;;;;;3.70;1.65;;;5.60;99.90;;;;;;4981792;28;20046;-85
2022/03/30 06:55:45;;;;;;;2.67;1.67;;;5.70;99.90;;;;;;4998959;28;20057;-88
2022/03/30 06:58:12;;;;;;;2.22;1.27;;;5.80;99.90;;;;;;5016833;28;20057;-86
2022/03/30 07:00:38;;;;;;;2.67;1.40;;;5.80;99.90;;;;;;4990795;28;20060;-88
2022/03/30 07:03:04;;;;;;;1.65;1.30;;;5.90;99.90;;;;;;4999731;28;20049;-87
2022/03/30 07:05:31;;;;;;;2.22;1.17;;;5.90;99.90;;;;;;5014707;28;22095;-86
2022/03/30 07:10:41;;;;;;;3.63;1.70;;;6.00;99.90;;;;;;5002597;28;20091;-86
2022/03/30 07:13:07;;;;;;;3.30;1.30;;;6.10;99.90;;;;;;4998544;28;20080;-87
2022/03/30 07:15:32;;;;;;;3.30;1.17;;;6.10;99.90;;;;;;4980177;28;20152;-88
2022/03/30 07:18:00;;;;;;;4.10;1.40;;;6.20;99.90;;;;;;5024620;28;20545;-85
2022/03/30 07:20:27;;;;;;;3.65;1.35;;;6.20;99.90;;;;;;5024895;28;20692;-84
2022/03/30 07:22:53;;;;;;;2.97;1.25;;;6.30;99.90;;;;;;5015185;28;20752;-85
2022/03/30 07:25:22;;;;;;;2.10;1.17;;;6.40;99.90;;;;;;5031709;28;20509;-85
2022/03/30 07:27:50;;;;;;;2.20;1.20;;;6.30;99.90;;;;;;5009610;28;20045;-86
2022/03/30 07:30:19;;;;;;;6.72;1.38;;;6.30;99.90;;;;;;4997514;28;20057;-86
2022/03/30 07:32:47;;;;;;;3.95;1.40;;;6.40;99.90;;;;;;4998044;28;20053;-86
2022/03/30 07:35:16;;;;;;;3.28;1.77;;;6.40;99.90;;;;;;5017755;28;20052;-86
2022/03/30 07:37:43;;;;;;;2.75;2.10;;;6.40;99.90;;;;;;5016781;28;20036;-87
2022/03/30 07:40:12;;;;;;;4.90;2.47;;;6.50;99.90;;;;;;5018201;28;20055;-86
2022/03/30 07:42:38;;;;;;;3.50;2.80;;;6.60;99.90;;;;;;5033630;28;20052;-85
2022/03/30 07:45:06;;;;;;;6.30;3.10;;;6.70;99.90;;;;;;5017214;28;20037;-86
2022/03/30 07:47:32;;;;;;;4.97;3.20;;;6.70;99.90;;;;;;5027776;28;20115;-86
2022/03/30 07:49:59;;;;;;;4.18;2.33;;;6.70;99.90;;;;;;5003483;28;20085;-86
2022/03/30 07:52:24;;;;;;;5.32;2.90;;;7.00;99.90;;;;;;5017016;28;20094;-86
2022/03/30 07:54:52;;;;;;;4.60;2.70;;;6.90;99.90;;;;;;5016199;28;20045;-86
2022/03/30 07:57:25;;;;;;;4.53;3.03;;;7.00;99.90;;;;;;5030045;28;20068;-85
2022/03/30 07:59:51;;;;;;;8.23;4.80;;;7.00;99.90;;;;;;5010065;28;20509;-86
2022/03/30 08:02:18;;;;;;;7.13;3.97;;;7.10;99.30;;;;;;5034376;28;20044;-86
2022/03/30 08:04:44;;;;;;;6.68;4.97;;;7.10;98.90;;;;;;5016741;28;20049;-86
2022/03/30 08:07:10;;;;;;;8.32;4.55;;;7.20;98.90;;;;;;5017738;28;20048;-85
2022/03/30 08:09:36;;;;;;;10.85;4.55;;;7.30;98.40;;;;;;5033439;28;20049;-87
2022/03/30 08:12:03;;;;;;;7.30;4.40;;;7.40;98.30;;;;;;5033770;28;20131;-86
2022/03/30 08:14:28;;;;;;;9.27;4.13;;;7.50;97.70;;;;;;5017322;28;20063;-86
2022/03/30 08:16:54;;;;;;;9.02;3.80;;;7.50;97.20;;;;;;5034259;28;20041;-86
2022/03/30 08:19:20;;;;;;;6.45;4.40;;;7.60;97.40;;;;;;5012968;28;20115;-87
2022/03/30 08:24:29;;;;;;;4.97;2.85;;;7.90;96.50;;;;;;5036030;28;20560;-88
2022/03/30 08:26:55;;;;;;;4.50;2.47;;;8.00;95.50;;;;;;5018114;28;20052;-88
2022/03/30 08:29:21;;;;;;;5.50;2.63;;;8.10;95.40;;;;;;5017770;28;20071;-86
2022/03/30 08:31:48;;;;;;;3.70;2.40;;;8.10;94.70;;;;;;4999738;28;20084;-85
2022/03/30 08:34:15;;;;;;;7.35;2.60;;;8.10;94.30;;;;;;5028103;28;20140;-86
2022/03/30 08:36:42;;;;;;;6.55;2.72;;;8.20;94.20;;;;;;5046329;28;20041;-87
2022/03/30 08:39:11;;;;;;;7.10;3.33;;;8.20;93.70;;;;;;5030457;28;20169;-86
2022/03/30 08:41:45;;;;;;;7.65;3.75;;;8.20;93.20;;;;;;4998968;28;20049;-88
2022/03/30 08:44:14;;;;;;;5.25;3.05;;;8.30;93.00;;;;;;5029364;28;20041;-86
2022/03/30 08:46:46;;;;;;;8.70;4.10;;;8.20;93.30;;;;;;5029686;28;20038;-86
2022/03/30 08:49:15;;;;;;;10.32;4.00;;;8.20;92.70;;;;;;5014281;28;20049;-86
2022/03/30 08:51:47;;;;;;;7.53;3.60;;;8.20;92.80;;;;;;4988540;28;20137;-86
2022/03/30 08:54:14;;;;;;;4.13;2.70;;;8.10;92.60;;;;;;5025544;28;20129;-87
2022/03/30 08:56:41;;;;;;;5.13;2.17;;;8.00;92.20;;;;;;5001198;28;20497;-87
2022/03/30 08:59:09;;;;;;;4.85;2.03;;;8.20;92.10;;;;;;5035414;28;20064;-87
2022/03/30 09:01:39;;;;;;;3.47;1.50;;;8.40;91.60;;;;;;5030403;28;20073;-86
2022/03/30 09:04:12;;;;;;;5.30;1.38;;;8.70;91.20;;;;;;4997317;28;20056;-86
2022/03/30 09:06:41;;;;;;;5.88;1.55;;;8.80;90.10;;;;;;5007346;28;20096;-87
2022/03/30 09:09:08;;;;;;;4.10;1.38;;;8.60;88.10;;;;;;5010492;28;20061;-85
2022/03/30 09:11:44;;;;;;;3.88;1.33;;;8.40;89.70;;;;;;5021786;28;20041;-86
2022/03/30 09:14:10;;;;;;;5.57;1.50;;;8.10;89.80;;;;;;5008004;28;20045;-86
2022/03/30 09:16:39;;;;;;;6.57;1.48;;;7.80;90.80;;;;;;5013304;28;20045;-87
2022/03/30 09:19:08;;;;;;;4.53;1.75;;;7.50;92.00;;;;;;5029706;28;20083;-87
2022/03/30 09:21:50;;;;;;;3.38;1.60;;;7.20;93.60;;;;;;4996841;28;20041;-87
2022/03/30 09:24:20;;;;;;;6.32;1.80;;;7.00;95.80;;;;;;5046220;28;20049;-87
2022/03/30 09:26:50;;;;;;;3.42;1.98;;;6.70;96.30;;;;;;5013723;28;20056;-88
2022/03/30 09:29:19;;;;;;;3.10;1.40;;;6.60;97.50;;;;;;5010127;28;20401;-86
2022/03/30 09:31:47;;;;;;;5.97;1.63;;;6.60;98.00;;;;;;5028663;28;20045;-88
2022/03/30 09:34:13;;;;;;;4.82;1.80;;;6.80;98.50;;;;;;5012630;28;20057;-87
2022/03/30 09:36:41;;;;;;;6.68;1.73;;;7.20;98.90;;;;;;5009142;28;20073;-89
2022/03/30 09:39:25;;;;;;;4.70;1.55;;;7.50;98.00;;;;;;4986928;28;20049;-88
2022/03/30 09:41:53;;;;;;;4.03;1.52;;;7.70;97.40;;;;;;5012650;28;20053;-87
2022/03/30 09:44:21;;;;;;;4.75;1.45;;;7.50;97.10;;;;;;5009286;28;20045;-87
2022/03/30 09:46:55;;;;;;;3.10;1.17;;;7.50;97.40;;;;;;5020148;28;20049;-87
2022/03/30 09:49:46;;;;;;;3.00;0.95;;;7.60;97.10;;;;;;5001028;28;20042;-87
2022/03/30 09:52:16;;;;;;;3.17;1.10;;;8.10;96.70;;;;;;5025536;28;20045;-86
2022/03/30 09:54:49;;;;;;;3.08;1.10;;;8.70;94.00;;;;;;5035104;28;20090;-88
2022/03/30 09:57:18;;;;;;;4.53;1.27;;;9.00;90.90;;;;;;5011044;28;20085;-88
2022/03/30 10:00:00;;;;;;;4.25;1.60;;;9.50;90.90;;;;;;5025983;28;20095;-89
2022/03/30 10:02:27;;;;;;;4.72;1.30;;;9.90;88.40;;;;;;5018066;28;20395;-86
2022/03/30 10:04:53;;;;;;;6.43;1.55;;;10.40;87.70;;;;;;4991903;28;20038;-87
2022/03/30 10:07:21;;;;;;;3.78;1.40;;;10.80;85.10;;;;;;4996802;28;20056;-86
2022/03/30 10:09:48;;;;;;;5.22;1.52;;;11.40;83.60;;;;;;5029482;28;20195;-86
2022/03/30 10:12:17;;;;;;;3.38;1.42;;;11.60;80.30;;;;;;5019951;28;20045;-87
2022/03/30 10:14:45;;;;;;;4.88;1.20;;;11.70;78.90;;;;;;5021937;28;20056;-89
2022/03/30 10:17:11;;;;;;;6.25;1.58;;;12.10;78.50;;;;;;5009905;28;20124;-86
2022/03/30 10:19:40;;;;;;;4.72;1.27;;;12.00;76.00;;;;;;4983990;28;20065;-87
2022/03/30 10:22:17;;;;;;;7.78;1.65;;;11.60;74.60;;;;;;5003821;28;20053;-86
2022/03/30 10:25:01;;;;;;;6.65;1.70;;;10.80;75.40;;;;;;5013187;28;20041;-87
2022/03/30 10:27:58;;;;;;;3.38;1.30;;;10.10;76.80;;;;;;5006453;28;20176;-88
2022/03/30 10:30:29;;;;;;;3.65;1.20;;;9.40;78.90;;;;;;5026246;28;20058;-87
2022/03/30 10:32:58;;;;;;;2.53;1.35;;;8.90;81.60;;;;;;5031216;28;20049;-88
2022/03/30 10:35:47;;;;;;;5.50;1.83;;;8.60;83.40;;;;;;5019699;28;20093;-88
2022/03/30 10:38:16;;;;;;;3.97;1.50;;;8.40;83.70;;;;;;5017943;28;20470;-88
2022/03/30 10:40:42;;;;;;;5.18;1.40;;;8.30;85.40;;;;;;5013726;28;20045;-86
2022/03/30 10:43:13;;;;;;;3.60;1.42;;;8.30;86.20;;;;;;4998639;28;20049;-88
2022/03/30 10:46:06;;;;;;;4.28;1.50;;;8.50;86.10;;;;;;5016683;28;20091;-88
2022/03/30 10:48:31;;;;;;;3.13;1.20;;;8.60;85.40;;;;;;5027509;28;20779;-87
2022/03/30 10:51:15;;;;;;;2.38;1.20;;;8.80;84.90;;;;;;5014965;28;20053;-87
2022/03/30 10:53:46;;;;;;;4.13;1.20;;;9.00;83.60;;;;;;5026377;28;20052;-88
2022/03/30 10:56:18;;;;;;;5.45;2.28;;;9.20;82.20;;;;;;5046745;28;20053;-87
2022/03/30 10:58:52;;;;;;;3.95;1.20;;;9.30;80.30;;;;;;5018530;28;20498;-88
2022/03/30 11:01:30;;;;;;;3.63;1.23;;;9.60;79.60;;;;;;5017282;28;20055;-88
2022/03/30 11:04:03;;;;;;;2.40;1.10;;;9.80;77.20;;;;;;5019482;28;20053;-88
2022/03/30 11:06:38;;;;;;;4.85;1.38;;;9.90;76.40;;;;;;5019588;28;20103;-87
2022/03/30 11:09:07;;;;;;;4.55;1.20;;;9.80;75.40;;;;;;5034605;28;20052;-87
2022/03/30 11:11:43;;;;;;;6.00;1.70;;;9.90;77.40;;;;;;5035973;28;20049;-88
2022/03/30 11:14:32;;;;;;;3.92;1.20;;;10.10;76.60;;;;;;5019360;28;20110;-88
2022/03/30 11:17:04;;;;;;;6.45;1.33;;;10.20;72.40;;;;;;5034918;28;20102;-88
2022/03/30 11:19:54;;;;;;;6.50;1.60;;;10.20;73.20;;;;;;5019156;28;20049;-87
2022/03/30 11:22:28;;;;;;;5.38;1.58;;;10.30;69.70;;;;;;5020109;28;20044;-88
2022/03/30 11:25:23;;;;;;;4.78;1.30;;;10.20;69.80;;;;;;5019507;28;20045;-88
2022/03/30 11:27:58;;;;;;;3.20;1.13;;;10.40;69.00;;;;;;5034915;28;20136;-89
2022/03/30 11:30:38;;;;;;;4.15;1.52;;;10.70;69.30;;;;;;5039488;28;20075;-87
2022/03/30 11:33:17;;;;;;;2.58;1.30;;;10.90;66.80;;;;;;5041178;28;20061;-86
2022/03/30 11:35:43;;;;;;;2.38;1.30;;;10.80;67.90;;;;;;5017041;28;20415;-87
2022/03/30 11:38:15;;;;;;;3.08;1.17;;;10.50;67.90;;;;;;4992055;28;20244;-89
2022/03/30 11:40:45;;;;;;;3.53;1.73;;;10.30;68.70;;;;;;5015231;28;20433;-87
2022/03/30 11:43:12;;;;;;;5.15;1.45;;;10.00;68.50;;;;;;4988183;28;20106;-88
2022/03/30 11:45:39;;;;;;;4.40;1.40;;;9.80;69.50;;;;;;5027142;28;20094;-88
2022/03/30 11:48:10;;;;;;;2.78;1.40;;;9.60;70.90;;;;;;5033684;28;20052;-88
2022/03/30 11:50:42;;;;;;;3.42;1.20;;;9.40;71.30;;;;;;5016870;28;20049;-87
2022/03/30 11:53:09;;;;;;;4.25;1.63;;;9.20;71.70;;;;;;5017345;28;20052;-87
2022/03/30 11:55:51;;;;;;;2.83;1.10;;;9.10;73.20;;;;;;5030981;28;20045;-88
2022/03/30 11:58:34;;;;;;;4.72;1.60;;;8.90;71.70;;;;;;5027474;28;20048;-87
2022/03/30 12:01:03;;;;;;;5.35;1.40;;;9.00;71.40;;;;;;5016478;28;20064;-87
2022/03/30 12:03:30;;;;;;;4.43;1.40;;;9.00;72.90;;;;;;5016933;28;20045;-87
2022/03/30 12:06:00;;;;;;;4.15;1.40;;;9.10;72.70;;;;;;5022347;28;20133;-88
2022/03/30 12:08:27;;;;;;;5.00;1.38;;;9.10;72.50;;;;;;5031289;28;20047;-88
2022/03/30 12:11:01;;;;;;;2.80;1.33;;;9.10;72.60;;;;;;5023635;28;20037;-88
2022/03/30 12:13:27;;;;;;;5.22;1.35;;;8.80;72.90;;;;;;4998529;28;20099;-88
2022/03/30 12:16:05;;;;;;;6.95;1.70;;;8.70;74.20;;;;;;4990059;28;20045;-87
2022/03/30 12:18:31;;;;;;;2.55;1.27;;;8.60;75.40;;;;;;5021471;28;20781;-88
2022/03/30 12:21:01;;;;;;;4.07;1.45;;;8.60;76.10;;;;;;5000336;28;20056;-89
2022/03/30 12:23:28;;;;;;;9.93;4.28;;;8.70;75.80;;;;;;5001036;28;20376;-88
2022/03/30 12:25:53;;;;;;;3.78;1.38;;;8.90;75.80;;;;;;4999993;28;20134;-88
2022/03/30 12:28:32;;;;;;;4.03;1.40;;;9.00;74.60;;;;;;5006848;28;20084;-88
2022/03/30 12:30:59;;;;;;;4.55;1.17;;;9.10;73.20;;;;;;5036331;28;20110;-88
2022/03/30 12:33:25;;;;;;;3.95;1.10;;;9.40;74.00;;;;;;5037387;28;20178;-89
2022/03/30 12:35:57;;;;;;;3.67;1.05;;;9.70;73.10;;;;;;5026873;28;20091;-87
2022/03/30 12:38:26;;;;;;;2.67;1.17;;;10.20;70.90;;;;;;5012953;28;20049;-88
2022/03/30 12:40:53;;;;;;;4.18;1.50;;;10.60;69.10;;;;;;5017733;28;20041;-88
2022/03/30 12:43:27;;;;;;;2.72;1.00;;;10.80;68.30;;;;;;5033500;28;20106;-89
2022/03/30 12:45:59;;;;;;;5.53;1.20;;;10.90;65.50;;;;;;4997282;28;20125;-88
2022/03/30 12:48:31;;;;;;;3.42;1.10;;;10.60;65.30;;;;;;5016854;28;20049;-88
2022/03/30 12:50:59;;;;;;;3.40;0.80;;;10.20;64.50;;;;;;5030602;28;20041;-88
2022/03/30 12:53:32;;;;;;;6.30;0.90;;;9.60;64.80;;;;;;5024343;28;20379;-88
2022/03/30 12:56:17;;;;;;;3.38;0.98;;;9.40;65.50;;;;;;5014030;28;20203;-87
2022/03/30 12:58:53;;;;;;;2.53;1.30;;;9.20;65.70;;;;;;5014958;28;20056;-88
2022/03/30 13:01:45;;;;;;;4.43;1.08;;;9.10;67.10;;;;;;5013454;28;20135;-87
2022/03/30 13:04:30;;;;;;;2.38;1.05;;;9.10;66.30;;;;;;5012347;28;20049;-87